Time;durP1;ratioP1;P1;durP2;ratioP2;P2;SDS_P1;SDS_P2;PMS_P1;PMS_P2;Temp;Humidity;BMP_temperature;BMP_pressure;BME280_temperature;BME280_humidity;BME280_pressure;Samples;Min_cycle;Max_cycle;Signal;HPM_P1;HPM_P2
2022/11/18 00:01:09;;;;;;;8.70;3.30;;;;;;;18.37;100.00;100798.28;2093685;28;20049;-74
2022/11/18 00:02:31;;;;;;;8.45;3.10;;;;;;;18.34;100.00;100801.88;2096234;28;20040;-73
2022/11/18 00:03:53;;;;;;;11.23;2.83;;;;;;;18.31;100.00;100791.25;2093668;28;20056;-74
2022/11/18 00:05:17;;;;;;;8.23;3.17;;;;;;;18.27;100.00;100802.88;2091453;28;20089;-72
2022/11/18 00:06:39;;;;;;;11.88;2.83;;;;;;;18.24;100.00;100806.50;2095806;28;20481;-74
2022/11/18 00:08:01;;;;;;;6.55;2.67;;;;;;;18.22;100.00;100802.97;2107065;28;20092;-73
2022/11/18 00:09:23;;;;;;;7.90;3.05;;;;;;;18.20;100.00;100807.44;2104535;28;20094;-72
2022/11/18 00:10:44;;;;;;;11.10;3.75;;;;;;;18.18;100.00;100792.34;2088876;28;20085;-73
2022/11/18 00:15:26;;;;;;;12.02;4.18;;;;;;;18.09;100.00;100805.84;2104449;28;20048;-73
2022/11/18 00:16:49;;;;;;;8.80;2.90;;;;;;;18.06;100.00;100806.75;2102031;28;20152;-73
2022/11/18 00:18:12;;;;;;;13.38;4.38;;;;;;;18.05;100.00;100806.78;2096512;28;20106;-73
2022/11/18 00:19:35;;;;;;;7.47;2.75;;;;;;;18.03;100.00;100822.84;2096541;28;20052;-73
2022/11/18 00:21:02;;;;;;;8.10;2.45;;;;;;;18.02;100.00;100804.16;2094055;28;20056;-73
2022/11/18 00:22:25;;;;;;;8.18;2.80;;;;;;;18.04;100.00;100821.94;2102783;28;20039;-73
2022/11/18 00:23:47;;;;;;;11.35;3.10;;;;;;;18.06;100.00;100827.25;2104241;28;20130;-73
2022/11/18 00:25:10;;;;;;;11.57;3.30;;;;;;;18.07;100.00;100821.00;2093909;28;20040;-73
2022/11/18 00:26:31;;;;;;;8.88;2.83;;;;;;;18.07;100.00;100824.56;2099602;28;20044;-73
2022/11/18 00:27:54;;;;;;;8.18;2.78;;;;;;;18.07;100.00;100826.34;2099406;28;20039;-72
2022/11/18 00:29:18;;;;;;;9.82;3.28;;;;;;;18.06;100.00;100822.78;2102237;28;20097;-72
2022/11/18 00:30:41;;;;;;;12.00;3.35;;;;;;;18.04;100.00;100832.63;2099688;28;20048;-73
2022/11/18 00:32:04;;;;;;;12.02;3.30;;;;;;;18.06;100.00;100832.56;2088800;28;20053;-73
2022/11/18 00:33:25;;;;;;;8.00;3.10;;;;;;;18.07;100.00;100835.25;2104230;28;20449;-73
2022/11/18 00:34:49;;;;;;;8.43;3.17;;;;;;;18.07;100.00;100829.91;2102308;28;20074;-73
2022/11/18 00:36:12;;;;;;;10.20;2.88;;;;;;;18.10;100.00;100819.19;2101647;28;20518;-73
2022/11/18 00:37:35;;;;;;;5.50;2.42;;;;;;;18.11;100.00;100826.28;2110599;28;20720;-73
2022/11/18 00:38:59;;;;;;;7.72;2.60;;;;;;;18.15;100.00;100809.31;2089373;28;20099;-73
2022/11/18 00:40:21;;;;;;;11.00;2.83;;;;;;;18.16;100.00;100813.75;2094009;28;20053;-73
2022/11/18 00:43:22;;;;;;;10.13;2.90;;;;;;;18.24;100.00;100808.28;2100129;28;20046;-72
2022/11/18 00:44:45;;;;;;;5.28;2.53;;;;;;;18.25;100.00;100786.88;2101637;28;20067;-73
2022/11/18 00:46:09;;;;;;;7.88;2.28;;;;;;;18.27;100.00;100806.44;2103996;28;20059;-74
2022/11/18 00:47:31;;;;;;;7.38;2.70;;;;;;;18.27;100.00;100808.22;2104898;28;20036;-73
2022/11/18 00:48:52;;;;;;;9.63;2.75;;;;;;;18.26;100.00;100806.44;2111502;28;20055;-73
2022/11/18 00:50:15;;;;;;;6.22;2.60;;;;;;;18.25;100.00;100808.25;2102009;28;20555;-73
2022/11/18 00:51:38;;;;;;;5.88;2.55;;;;;;;18.26;100.00;100804.66;2083148;28;20480;-73
2022/11/18 00:53:01;;;;;;;12.30;2.75;;;;;;;18.26;100.00;100812.69;2099248;28;20482;-73
2022/11/18 00:54:22;;;;;;;7.80;2.40;;;;;;;18.24;100.00;100806.50;2104692;28;20048;-73
2022/11/18 00:55:44;;;;;;;8.65;3.25;;;;;;;18.24;100.00;100810.97;2109982;28;20495;-73
2022/11/18 00:57:06;;;;;;;9.68;2.53;;;;;;;18.23;100.00;100810.06;2096266;28;20451;-73
2022/11/18 00:58:28;;;;;;;9.85;2.60;;;;;;;18.21;100.00;100813.66;2099297;28;20381;-73
2022/11/18 00:59:52;;;;;;;8.23;3.30;;;;;;;18.19;100.00;100815.47;2102415;28;20059;-74
2022/11/18 01:01:14;;;;;;;9.48;4.05;;;;;;;18.17;100.00;100826.19;2107422;28;20492;-73
2022/11/18 01:02:35;;;;;;;11.85;3.33;;;;;;;18.14;100.00;100831.56;2104632;28;20542;-73
2022/11/18 01:03:57;;;;;;;9.77;2.70;;;;;;;18.10;100.00;100835.22;2102229;28;20048;-73
2022/11/18 01:05:20;;;;;;;7.30;2.50;;;;;;;18.06;100.00;100841.47;2101795;28;20054;-73
2022/11/18 01:06:43;;;;;;;8.30;3.03;;;;;;;18.05;100.00;100834.38;2103704;28;20098;-73
2022/11/18 01:08:07;;;;;;;8.00;2.60;;;;;;;18.03;100.00;100832.63;2102351;28;20060;-72
2022/11/18 01:09:28;;;;;;;13.65;3.03;;;;;;;18.02;100.00;100836.22;2104019;28;20040;-73
2022/11/18 01:10:51;;;;;;;10.23;2.78;;;;;;;17.99;100.00;100838.91;2104451;28;20059;-73
2022/11/18 01:13:52;;;;;;;7.60;2.28;;;;;;;17.95;100.00;100843.41;2104700;28;20056;-72
2022/11/18 01:15:14;;;;;;;;;;;;;;;17.91;100.00;100844.38;2110145;28;20049;-72
2022/11/18 01:16:36;;;;;;;8.52;2.67;;;;;;;17.90;100.00;100851.50;2107598;28;19968;-72
2022/11/18 01:18:00;;;;;;;8.45;2.70;;;;;;;17.89;100.00;100844.41;2096797;28;20082;-73
2022/11/18 01:19:22;;;;;;;7.93;2.53;;;;;;;17.96;100.00;100846.97;2096183;28;20400;-72
2022/11/18 01:20:45;;;;;;;;;;;;;;;17.94;100.00;100847.00;2103253;28;20044;-73
2022/11/18 01:22:08;;;;;;;;;;;;;;;17.94;100.00;100847.00;2106497;28;20211;-73
2022/11/18 01:23:31;;;;;;;8.60;2.45;;;;;;;18.03;100.00;100838.88;2103489;28;20425;-72
2022/11/18 01:24:52;;;;;;;7.22;2.33;;;;;;;18.08;100.00;100845.03;2103625;28;20565;-72
2022/11/18 01:26:16;;;;;;;5.65;2.40;;;;;;;18.09;100.00;100838.78;2103241;28;20594;-72
2022/11/18 01:27:39;;;;;;;6.50;2.33;;;;;;;18.08;100.00;100837.00;2095652;28;20501;-72
2022/11/18 01:29:01;;;;;;;7.78;2.20;;;;;;;18.04;100.00;100840.63;2095252;28;20080;-72
2022/11/18 01:30:23;;;;;;;9.10;2.65;;;;;;;18.01;100.00;100839.78;2086919;28;20045;-72
2022/11/18 01:31:45;;;;;;;8.63;2.70;;;;;;;17.98;100.00;100835.38;2107058;28;20054;-72
2022/11/18 01:33:09;;;;;;;8.85;2.60;;;;;;;17.98;100.00;100839.84;2094688;28;20420;-73
2022/11/18 01:34:30;;;;;;;5.97;2.20;;;;;;;17.97;100.00;100833.63;2092366;28;20041;-72
2022/11/18 01:35:53;;;;;;;6.32;2.10;;;;;;;17.97;100.00;100832.72;2102426;28;20054;-73
2022/11/18 01:37:17;;;;;;;7.32;2.53;;;;;;;17.97;100.00;100828.28;2105221;28;20098;-73
2022/11/18 01:38:38;;;;;;;5.70;1.98;;;;;;;17.95;100.00;100827.41;2108842;28;20546;-72
2022/11/18 01:40:00;;;;;;;9.60;3.15;;;;;;;17.92;100.00;100827.41;2103544;28;20066;-73
2022/11/18 01:41:25;;;;;;;7.50;1.98;;;;;;;17.89;100.00;100824.81;2107996;28;20058;-72
2022/11/18 01:42:46;;;;;;;9.30;2.40;;;;;;;17.86;100.00;100827.50;2112136;28;20445;-72
2022/11/18 01:44:41;;;;;;;6.63;2.22;;;;;;;17.84;100.00;100822.22;2097967;28;20063;-73
2022/11/18 01:46:04;;;;;;;4.97;2.28;;;;;;;17.83;100.00;100822.22;2109533;28;20433;-73
2022/11/18 01:47:30;;;;;;;5.43;2.50;;;;;;;17.80;100.00;100817.78;2106075;28;20109;-72
2022/11/18 01:48:56;;;;;;;9.63;2.30;;;;;;;17.78;100.00;100818.75;2103221;28;20085;-72
2022/11/18 01:50:19;;;;;;;9.35;2.20;;;;;;;17.76;100.00;100829.44;2103969;28;20058;-73
2022/11/18 01:51:48;;;;;;;11.00;2.45;;;;;;;17.72;100.00;100809.00;2103714;28;20040;-73
2022/11/18 01:53:20;;;;;;;9.32;2.47;;;;;;;17.71;100.00;100811.69;2103174;28;20052;-73
2022/11/18 01:54:50;;;;;;;8.07;2.53;;;;;;;17.68;100.00;100804.59;2111643;28;20113;-73
2022/11/18 01:56:17;;;;;;;10.93;2.40;;;;;;;17.67;100.00;100801.94;2112697;28;20055;-73
2022/11/18 01:57:41;;;;;;;4.85;2.22;;;;;;;17.69;100.00;100802.81;2103974;28;20051;-73
2022/11/18 01:59:06;;;;;;;9.05;2.80;;;;;;;17.70;100.00;100805.47;2108914;28;20048;-73
2022/11/18 02:00:29;;;;;;;5.13;2.42;;;;;;;17.71;100.00;100793.00;2111025;28;20035;-73
2022/11/18 02:01:50;;;;;;;9.93;2.85;;;;;;;17.73;100.00;100800.09;2103313;28;20047;-73
2022/11/18 02:03:14;;;;;;;8.52;2.75;;;;;;;17.73;100.00;100805.41;2097669;28;20067;-73
2022/11/18 02:04:36;;;;;;;9.45;3.15;;;;;;;17.73;100.00;100792.06;2092040;28;20040;-73
2022/11/18 02:06:01;;;;;;;7.22;2.60;;;;;;;17.72;100.00;100794.78;2093538;28;20041;-74
2022/11/18 02:07:23;;;;;;;11.23;3.05;;;;;;;17.72;100.00;100797.47;2099561;28;20135;-74
2022/11/18 02:08:49;;;;;;;8.10;3.00;;;;;;;17.67;100.00;100797.50;2105715;28;20555;-73
2022/11/18 02:10:19;;;;;;;7.75;2.75;;;;;;;17.60;100.00;100803.78;2097566;28;20565;-73
2022/11/18 02:11:49;;;;;;;6.40;3.35;;;;;;;17.52;100.00;100801.19;2104266;28;20044;-73
2022/11/18 02:13:13;;;;;;;7.80;3.05;;;;;;;17.45;100.00;100799.53;2095729;28;20044;-73
2022/11/18 02:14:39;;;;;;;7.25;2.83;;;;;;;17.38;100.00;100797.84;2095007;28;20032;-73
2022/11/18 02:16:08;;;;;;;11.05;3.40;;;;;;;17.31;100.00;100803.25;2105756;28;20050;-73
2022/11/18 02:17:40;;;;;;;6.63;2.97;;;;;;;17.24;100.00;100793.56;2097615;28;20044;-73
2022/11/18 02:19:15;;;;;;;7.65;2.80;;;;;;;17.18;100.00;100798.97;2096286;28;20130;-72
2022/11/18 02:20:42;;;;;;;8.77;3.42;;;;;;;17.13;100.00;100791.88;2099299;28;20035;-73
2022/11/18 02:22:14;;;;;;;7.18;3.00;;;;;;;17.10;100.00;100797.25;2103964;28;20471;-72
2022/11/18 02:23:55;;;;;;;;;;;;;;;17.03;100.00;100798.22;2104534;28;20523;-73
2022/11/18 02:25:31;;;;;;;10.30;3.70;;;;;;;17.02;100.00;100800.88;2097492;28;19920;-73
2022/11/18 02:27:30;;;;;;;9.10;2.90;;;;;;;16.98;100.00;100802.72;2111489;28;20476;-73
2022/11/18 02:29:10;;;;;;;9.05;3.42;;;;;;;16.95;100.00;100799.19;2110038;28;20072;-73
2022/11/18 02:30:40;;;;;;;7.95;4.05;;;;;;;16.93;100.00;100793.00;2095730;28;20039;-73
2022/11/18 02:32:09;;;;;;;7.50;3.03;;;;;;;16.93;100.00;100795.66;2102641;28;20058;-74
2022/11/18 02:33:37;;;;;;;8.65;3.15;;;;;;;16.96;100.00;100801.84;2103925;28;20445;-73
2022/11/18 02:35:07;;;;;;;9.82;3.13;;;;;;;17.01;100.00;100794.66;2095390;28;20390;-73
2022/11/18 02:36:38;;;;;;;7.05;2.58;;;;;;;17.04;100.00;100799.09;2096209;28;20053;-72
2022/11/18 02:38:05;;;;;;;8.80;3.08;;;;;;;17.04;100.00;100802.66;2104477;28;20048;-72
2022/11/18 02:39:33;;;;;;;6.45;2.20;;;;;;;17.05;100.00;100796.44;2103589;28;20048;-72
2022/11/18 02:41:00;;;;;;;7.68;3.33;;;;;;;17.05;100.00;100792.88;2096630;28;20044;-73
2022/11/18 02:42:25;;;;;;;11.00;2.60;;;;;;;17.05;100.00;100796.44;2102055;28;20444;-73
2022/11/18 02:43:51;;;;;;;9.93;3.80;;;;;;;17.08;100.00;100804.38;2101296;28;20511;-73
2022/11/18 02:45:18;;;;;;;7.45;2.75;;;;;;;17.11;100.00;100796.34;2089004;28;20041;-73
2022/11/18 02:46:42;;;;;;;14.07;3.40;;;;;;;17.14;100.00;100792.75;2101271;28;20044;-73
2022/11/18 02:48:09;;;;;;;8.57;2.28;;;;;;;17.23;100.00;100799.78;2097413;28;20378;-72
2022/11/18 02:49:34;;;;;;;10.18;2.75;;;;;;;17.30;100.00;100798.81;2109305;28;20136;-72
2022/11/18 02:50:58;;;;;;;7.80;2.53;;;;;;;17.34;100.00;100780.06;2105276;28;20040;-73
2022/11/18 02:52:22;;;;;;;8.15;2.60;;;;;;;17.37;100.00;100796.06;2105508;28;20052;-73
2022/11/18 02:53:48;;;;;;;8.40;2.45;;;;;;;17.38;100.00;100794.28;2102808;28;20166;-73
2022/11/18 02:55:13;;;;;;;8.70;2.80;;;;;;;17.37;100.00;100790.72;2103338;28;20044;-73
2022/11/18 02:56:36;;;;;;;10.05;2.78;;;;;;;17.37;100.00;100789.84;2105826;28;20522;-73
2022/11/18 02:58:01;;;;;;;8.25;2.83;;;;;;;17.36;100.00;100796.97;2105109;28;20063;-73
2022/11/18 02:59:23;;;;;;;8.88;2.88;;;;;;;17.36;100.00;100786.28;2103225;28;20073;-73
2022/11/18 03:00:54;;;;;;;9.80;3.08;;;;;;;17.34;100.00;100793.41;2100979;28;20056;-73
2022/11/18 03:02:17;;;;;;;8.18;2.85;;;;;;;17.34;100.00;100792.53;2103650;28;20040;-73
2022/11/18 03:03:40;;;;;;;8.63;3.50;;;;;;;17.32;100.00;100786.34;2094812;28;20053;-72
2022/11/18 03:05:01;;;;;;;5.95;2.65;;;;;;;17.27;100.00;100783.72;2096989;28;20052;-73
2022/11/18 03:06:29;;;;;;;9.57;3.25;;;;;;;17.23;100.00;100791.78;2102132;28;20133;-72
2022/11/18 03:07:56;;;;;;;7.85;3.10;;;;;;;17.17;100.00;100791.84;2097227;28;20055;-73
2022/11/18 03:09:25;;;;;;;8.45;3.10;;;;;;;17.11;100.00;100791.03;2103705;28;20532;-73
2022/11/18 03:10:51;;;;;;;6.07;2.53;;;;;;;17.06;100.00;100791.97;2101389;28;20168;-73
2022/11/18 03:12:24;;;;;;;7.63;3.03;;;;;;;16.98;100.00;100797.38;2103287;28;20055;-73
2022/11/18 03:14:04;;;;;;;6.32;2.83;;;;;;;16.92;100.00;100791.22;2095795;28;20075;-74
2022/11/18 03:15:38;;;;;;;8.98;2.67;;;;;;;16.86;100.00;100796.63;2099844;28;20399;-74
2022/11/18 03:17:08;;;;;;;10.77;3.05;;;;;;;16.83;100.00;100804.63;2104528;28;20048;-73
2022/11/18 03:18:39;;;;;;;10.68;3.28;;;;;;;16.80;100.00;100794.00;2088840;28;20049;-73
2022/11/18 03:20:11;;;;;;;9.20;3.25;;;;;;;16.80;100.00;100799.34;2092690;28;20101;-73
2022/11/18 03:21:39;;;;;;;8.85;3.20;;;;;;;16.79;100.00;100802.91;2090094;28;20130;-73
2022/11/18 03:23:07;;;;;;;5.78;3.10;;;;;;;16.79;100.00;100802.91;2101346;28;20052;-73
2022/11/18 03:24:32;;;;;;;7.93;2.80;;;;;;;16.77;100.00;100805.56;2103845;28;20490;-73
2022/11/18 03:25:57;;;;;;;11.55;2.92;;;;;;;16.77;100.00;100808.25;2105188;28;20515;-74
2022/11/18 03:27:25;;;;;;;9.95;4.00;;;;;;;16.76;100.00;100805.59;2102805;28;20047;-73
2022/11/18 03:28:54;;;;;;;6.93;3.00;;;;;;;16.76;100.00;100811.81;2094543;28;20053;-73
2022/11/18 03:30:19;;;;;;;9.60;2.92;;;;;;;16.77;100.00;100810.03;2102195;28;20059;-73
2022/11/18 03:31:45;;;;;;;8.55;2.88;;;;;;;16.78;100.00;100814.47;2099361;28;20127;-74
2022/11/18 03:33:15;;;;;;;8.40;2.58;;;;;;;16.78;100.00;100811.78;2094280;28;20041;-73
2022/11/18 03:34:40;;;;;;;9.55;3.33;;;;;;;16.78;100.00;100814.47;2103734;28;20457;-73
2022/11/18 03:36:06;;;;;;;12.27;3.20;;;;;;;16.77;100.00;100818.91;2108562;28;20520;-73
2022/11/18 03:37:29;;;;;;;8.38;3.30;;;;;;;16.78;100.00;100822.47;2103436;28;20035;-73
2022/11/18 03:38:57;;;;;;;6.57;2.65;;;;;;;16.79;100.00;100813.56;2101656;28;20492;-73
2022/11/18 03:40:23;;;;;;;8.73;3.00;;;;;;;16.79;100.00;100813.56;2094183;28;20052;-73
2022/11/18 03:41:55;;;;;;;11.35;3.75;;;;;;;16.81;100.00;100811.75;2099086;28;20048;-73
2022/11/18 03:43:22;;;;;;;9.00;2.80;;;;;;;16.81;100.00;100817.97;2111193;28;20101;-73
2022/11/18 03:44:50;;;;;;;8.98;4.15;;;;;;;16.81;100.00;100817.97;2120283;27;20447;-73
2022/11/18 03:46:16;;;;;;;8.25;3.00;;;;;;;16.82;100.00;100816.19;2099715;28;20110;-73
2022/11/18 03:47:41;;;;;;;7.57;2.58;;;;;;;16.83;100.00;100809.97;2102781;28;20056;-73
2022/11/18 03:49:08;;;;;;;9.93;3.13;;;;;;;16.82;100.00;100821.53;2106875;28;20067;-72
2022/11/18 03:50:35;;;;;;;8.65;3.17;;;;;;;16.81;100.00;100819.75;2112579;27;20102;-72
2022/11/18 03:52:02;;;;;;;8.77;3.00;;;;;;;16.80;100.00;100818.00;2088702;28;20052;-73
2022/11/18 03:53:27;;;;;;;12.65;3.50;;;;;;;16.79;100.00;100816.25;2088166;28;20068;-72
2022/11/18 03:54:54;;;;;;;9.38;3.42;;;;;;;16.78;100.00;100823.34;2100555;28;20040;-73
2022/11/18 03:56:25;;;;;;;9.23;3.38;;;;;;;16.80;100.00;100826.00;2103455;28;20039;-72
2022/11/18 03:57:53;;;;;;;10.13;3.10;;;;;;;16.79;100.00;100822.47;2112350;28;20035;-72
2022/11/18 03:59:20;;;;;;;11.95;3.50;;;;;;;16.81;100.00;100822.41;2096695;28;20492;-72
2022/11/18 04:00:44;;;;;;;8.20;3.28;;;;;;;16.84;100.00;100825.06;2099350;28;20036;-72
2022/11/18 04:02:11;;;;;;;10.55;3.13;;;;;;;16.87;100.00;100827.72;2096464;28;20063;-72
2022/11/18 04:03:33;;;;;;;12.68;3.17;;;;;;;16.89;100.00;100823.25;2101028;28;20482;-72
2022/11/18 04:05:01;;;;;;;10.02;3.53;;;;;;;16.91;100.00;100819.66;2093419;28;20523;-72
2022/11/18 04:06:30;;;;;;;7.85;3.03;;;;;;;16.95;100.00;100817.84;2103132;28;20465;-72
2022/11/18 04:07:57;;;;;;;11.57;3.05;;;;;;;16.98;100.00;100825.84;2105089;28;20250;-71
2022/11/18 04:09:22;;;;;;;13.10;3.35;;;;;;;16.99;100.00;100824.94;2098132;28;20109;-72
2022/11/18 04:10:52;;;;;;;12.63;5.72;;;;;;;16.99;100.00;100820.50;2098416;28;20397;-72
2022/11/18 04:12:19;;;;;;;17.92;9.30;;;;;;;17.01;100.00;100820.44;2086606;28;20102;-72
2022/11/18 04:13:42;;;;;;;15.52;6.90;;;;;;;17.02;100.00;100824.88;2098617;28;20391;-71
2022/11/18 04:15:05;;;;;;;10.73;4.40;;;;;;;17.02;100.00;100817.78;2101970;28;20040;-72
2022/11/18 04:16:28;;;;;;;12.52;3.85;;;;;;;17.04;100.00;100817.78;2101818;28;20059;-72
2022/11/18 04:17:49;;;;;;;12.25;4.95;;;;;;;17.06;100.00;100829.31;2105062;28;20525;-72
2022/11/18 04:19:12;;;;;;;15.23;5.45;;;;;;;17.06;100.00;100824.88;2103872;28;20366;-71
2022/11/18 04:20:36;;;;;;;17.13;6.57;;;;;;;17.07;100.00;100818.59;2102088;28;20129;-72
2022/11/18 04:21:58;;;;;;;18.60;7.25;;;;;;;17.08;100.00;100822.16;2094007;28;20152;-72
2022/11/18 04:23:20;;;;;;;20.50;6.72;;;;;;;17.06;100.00;100814.19;2093596;28;20048;-72
2022/11/18 04:24:42;;;;;;;13.07;6.15;;;;;;;17.05;100.00;100814.22;2099344;28;20043;-72
2022/11/18 04:26:04;;;;;;;15.38;4.97;;;;;;;17.06;100.00;100814.19;2092856;28;20492;-72
2022/11/18 04:27:27;;;;;;;13.68;5.47;;;;;;;17.05;100.00;100823.09;2090673;28;20409;-72
2022/11/18 04:28:48;;;;;;;15.95;6.68;;;;;;;17.05;100.00;100827.53;2107919;28;20055;-72
2022/11/18 04:30:12;;;;;;;19.38;6.32;;;;;;;17.06;100.00;100823.97;2104187;28;20048;-72
2022/11/18 04:31:33;;;;;;;24.10;9.63;;;;;;;17.06;100.00;100829.31;2110846;28;20035;-72
2022/11/18 04:32:55;;;;;;;21.45;8.55;;;;;;;17.06;100.00;100826.66;2102475;28;20539;-72
2022/11/18 04:34:16;;;;;;;22.02;8.90;;;;;;;17.08;100.00;100833.72;2093432;28;20048;-72
2022/11/18 04:35:40;;;;;;;21.10;7.57;;;;;;;17.09;100.00;100831.94;2099663;28;20044;-72
2022/11/18 04:37:02;;;;;;;23.10;8.43;;;;;;;17.10;100.00;100828.38;2101349;28;20143;-73
2022/11/18 04:38:24;;;;;;;39.03;12.07;;;;;;;17.09;100.00;100835.50;2104262;28;20055;-72
2022/11/18 04:39:45;;;;;;;30.77;11.77;;;;;;;17.10;100.00;100841.72;2105001;28;20381;-73
2022/11/18 04:41:08;;;;;;;31.38;14.60;;;;;;;17.09;100.00;100838.16;2105506;28;20048;-73
2022/11/18 04:42:29;;;;;;;20.17;8.70;;;;;;;17.11;100.00;100835.47;2093524;28;20048;-72
2022/11/18 04:43:51;;;;;;;14.93;5.78;;;;;;;17.12;100.00;100838.16;2101913;28;20686;-72
2022/11/18 04:45:14;;;;;;;14.43;4.53;;;;;;;17.13;100.00;100842.56;2103835;28;20489;-73
2022/11/18 04:46:35;;;;;;;15.50;5.38;;;;;;;17.13;100.00;100839.88;2096017;28;20101;-72
2022/11/18 04:47:57;;;;;;;14.43;4.93;;;;;;;17.12;100.00;100837.25;2102395;28;20044;-72
2022/11/18 04:49:19;;;;;;;17.17;9.35;;;;;;;17.11;100.00;100839.03;2101714;28;20079;-72
2022/11/18 04:50:43;;;;;;;14.27;9.52;;;;;;;17.11;100.00;100843.50;2101685;28;20534;-72
2022/11/18 04:52:05;;;;;;;19.50;7.10;;;;;;;17.10;100.00;100839.94;2104957;28;20043;-72
2022/11/18 04:53:27;;;;;;;19.00;7.85;;;;;;;17.10;100.00;100839.94;2110475;28;20071;-72
2022/11/18 04:54:48;;;;;;;11.13;5.28;;;;;;;17.09;100.00;100834.59;2096419;28;20127;-72
2022/11/18 04:56:11;;;;;;;18.73;5.85;;;;;;;17.08;100.00;100839.06;2093778;28;20146;-72
2022/11/18 04:57:33;;;;;;;14.68;8.40;;;;;;;17.08;100.00;100844.38;2098979;28;20373;-72
2022/11/18 04:58:54;;;;;;;15.75;7.07;;;;;;;17.08;100.00;100849.72;2101903;28;20092;-72
2022/11/18 05:00:18;;;;;;;13.52;4.72;;;;;;;17.10;100.00;100857.72;2091682;28;20056;-72
2022/11/18 05:01:39;;;;;;;14.43;5.43;;;;;;;17.11;100.00;100851.50;2090621;28;20049;-72
2022/11/18 05:03:02;;;;;;;11.50;3.90;;;;;;;17.12;100.00;100851.47;2097156;28;20044;-73
2022/11/18 05:04:26;;;;;;;10.65;3.60;;;;;;;17.18;100.00;100854.97;2093719;28;20127;-73
2022/11/18 05:05:49;;;;;;;13.85;3.78;;;;;;;17.19;100.00;100857.63;2104013;28;20055;-73
2022/11/18 05:07:14;;;;;;;10.35;3.58;;;;;;;17.22;100.00;100857.59;2096257;28;20036;-72
2022/11/18 05:08:35;;;;;;;11.85;3.55;;;;;;;17.23;100.00;100859.38;2099805;28;20048;-73
2022/11/18 05:09:58;;;;;;;10.40;3.42;;;;;;;17.24;100.00;100861.13;2101712;28;20044;-72
2022/11/18 05:12:59;;;;;;;13.23;3.35;;;;;;;17.28;100.00;100862.88;2109835;28;20047;-72
2022/11/18 05:14:21;;;;;;;12.23;4.45;;;;;;;17.31;100.00;100862.84;2101671;28;20044;-72
2022/11/18 05:15:42;;;;;;;14.40;4.35;;;;;;;17.35;100.00;100866.34;2101812;28;20147;-72
2022/11/18 05:17:07;;;;;;;10.93;2.90;;;;;;;17.37;100.00;100861.91;2102128;28;20069;-72
2022/11/18 05:18:28;;;;;;;10.23;3.55;;;;;;;17.41;100.00;100868.97;2099523;28;20494;-73
2022/11/18 05:19:50;;;;;;;13.88;4.30;;;;;;;17.43;100.00;100868.06;2104165;28;20101;-72
2022/11/18 05:21:13;;;;;;;12.32;4.88;;;;;;;17.49;100.00;100870.66;2102011;28;20089;-72
2022/11/18 05:22:36;;;;;;;12.02;4.43;;;;;;;17.55;100.00;100867.03;2096217;28;20036;-72
2022/11/18 05:23:58;;;;;;;16.73;6.50;;;;;;;17.64;100.00;100872.31;2103722;28;20044;-72
2022/11/18 05:25:20;;;;;;;42.28;15.50;;;;;;;17.71;100.00;100873.13;2093369;28;20045;-73
2022/11/18 05:26:42;;;;;;;45.20;21.23;;;;;;;17.78;100.00;100869.47;2098628;28;20048;-72
2022/11/18 05:28:04;;;;;;;;;;;;;;;17.78;100.00;100864.13;2101874;28;20056;-71
2022/11/18 05:29:26;;;;;;;61.20;26.35;;;;;;;17.83;100.00;100875.63;2093345;28;20039;-72
2022/11/18 05:30:48;;;;;;;43.33;17.65;;;;;;;17.83;100.00;100876.53;2090392;28;20556;-72
2022/11/18 05:32:10;;;;;;;32.03;13.85;;;;;;;17.82;100.00;100874.75;2100408;28;20047;-72
2022/11/18 05:33:32;;;;;;;30.85;10.98;;;;;;;17.82;100.00;100877.41;2103281;28;20423;-72
2022/11/18 05:34:54;;;;;;;40.25;17.10;;;;;;;17.84;100.00;100877.41;2110239;28;20458;-72
2022/11/18 05:36:19;;;;;;;19.27;6.72;;;;;;;17.86;100.00;100868.44;2104458;28;20093;-72
2022/11/18 05:37:41;;;;;;;23.52;6.88;;;;;;;17.88;100.00;100874.69;2102213;28;20048;-72
2022/11/18 05:39:03;;;;;;;19.95;6.57;;;;;;;17.90;100.00;100880.88;2100346;28;20066;-72
2022/11/18 05:40:25;;;;;;;15.93;8.30;;;;;;;17.92;100.00;100867.50;2101659;28;20059;-72
2022/11/18 05:43:27;;;;;;;21.73;8.23;;;;;;;18.01;100.00;100883.41;2119878;28;20486;-72
2022/11/18 05:44:50;;;;;;;15.52;6.28;;;;;;;18.05;100.00;100884.28;2113263;28;20134;-73
2022/11/18 05:46:11;;;;;;;15.35;4.63;;;;;;;18.11;100.00;100879.72;2101180;28;20497;-72
2022/11/18 05:47:58;;;;;;;13.32;5.63;;;;;;;18.20;100.00;100887.59;2107040;28;20035;-72
2022/11/18 05:49:15;;;;;;;15.98;6.13;;;;;;;18.32;100.00;100894.56;2101711;28;20056;-73
2022/11/18 05:50:39;;;;;;;15.95;5.75;;;;;;;18.39;100.00;100890.91;2107698;28;20050;-72
2022/11/18 05:52:03;;;;;;;11.82;3.85;;;;;;;18.44;100.00;100891.75;2110399;28;20105;-72
2022/11/18 05:53:25;;;;;;;11.95;4.22;;;;;;;18.50;100.00;100902.34;2110238;28;20155;-72
2022/11/18 05:54:50;;;;;;;10.27;5.72;;;;;;;18.56;100.00;100904.06;2093584;28;20159;-72
2022/11/18 05:56:17;;;;;;;16.95;8.40;;;;;;;18.59;100.00;100901.34;2087577;28;20483;-72
2022/11/18 05:57:40;;;;;;;20.67;11.48;;;;;;;18.56;100.00;100902.28;2108862;28;20134;-72
2022/11/18 05:59:02;;;;;;;15.68;11.48;;;;;;;18.51;100.00;100901.41;2109137;28;20666;-72
2022/11/18 06:00:23;;;;;;;22.67;13.57;;;;;;;18.47;100.00;100904.16;2109668;28;20047;-72
2022/11/18 06:01:50;;;;;;;29.02;20.90;;;;;;;18.43;100.00;100897.09;2087775;28;20045;-72
2022/11/18 06:03:16;;;;;;;32.53;26.52;;;;;;;18.41;100.00;100897.13;2092167;28;20044;-72
2022/11/18 06:04:44;;;;;;;32.70;25.23;;;;;;;18.41;100.00;100905.13;2093773;28;20468;-72
2022/11/18 06:06:08;;;;;;;35.53;27.58;;;;;;;18.45;100.00;100905.97;2094339;28;20045;-72
2022/11/18 06:07:38;;;;;;;34.67;24.08;;;;;;;18.53;100.00;100906.75;2095327;28;20135;-72
2022/11/18 06:09:03;;;;;;;32.75;25.40;;;;;;;18.70;100.00;100913.66;2105933;28;20135;-72
2022/11/18 06:10:31;;;;;;;31.45;22.67;;;;;;;18.91;100.00;100911.53;2096829;28;20389;-72
2022/11/18 06:11:58;;;;;;;32.65;26.42;;;;;;;19.12;100.00;100905.81;2085500;28;20048;-72
2022/11/18 06:13:24;;;;;;;27.13;21.48;;;;;;;19.32;100.00;100909.03;2093448;28;20148;-73
2022/11/18 06:14:49;;;;;;;33.10;24.33;;;;;;;19.50;100.00;100891.78;2101153;28;20039;-72
2022/11/18 06:16:13;;;;;;;24.45;21.65;;;;;;;19.67;100.00;100895.03;2098396;28;20055;-73
2022/11/18 06:17:40;;;;;;;34.60;23.83;;;;;;;19.84;100.00;100897.38;2105662;28;20081;-72
2022/11/18 06:19:03;;;;;;;38.53;27.33;;;;;;;19.99;100.00;100902.41;2087074;28;20059;-72
2022/11/18 06:20:27;;;;;;;39.17;31.02;;;;;;;20.13;100.00;100899.44;2101753;28;20066;-72
2022/11/18 06:21:49;;;;;;;34.95;29.98;;;;;;;20.26;100.00;100895.59;2104612;28;20082;-73
2022/11/18 06:23:13;;;;;;;38.35;31.40;;;;;;;20.39;100.00;100896.22;2090993;28;20099;-72
2022/11/18 06:24:36;;;;;;;42.17;37.45;;;;;;;20.51;100.00;100894.16;2100408;28;20111;-72
2022/11/18 06:25:59;;;;;;;51.80;44.20;;;;;;;20.64;100.00;100898.31;2095308;28;20550;-72
2022/11/18 06:27:22;;;;;;;38.30;32.33;;;;;;;20.76;100.00;100898.94;2098104;28;20056;-72
2022/11/18 06:28:47;;;;;;;38.63;30.33;;;;;;;20.88;100.00;100888.78;2107169;28;20453;-72
2022/11/18 06:30:10;;;;;;;26.02;18.23;;;;;;;20.99;100.00;100894.78;2095219;28;20052;-73
2022/11/18 06:31:33;;;;;;;30.95;18.17;;;;;;;21.08;100.00;100890.97;2101373;28;20044;-73
2022/11/18 06:32:55;;;;;;;30.15;19.33;;;;;;;21.19;100.00;100896.09;2106428;28;20393;-72
2022/11/18 06:34:18;;;;;;;21.45;13.27;;;;;;;21.30;100.00;100900.28;2105547;28;20135;-72
2022/11/18 06:35:41;;;;;;;16.92;9.05;;;;;;;21.43;100.00;100900.81;2102779;28;20042;-73
2022/11/18 06:37:13;;;;;;;12.35;6.75;;;;;;;21.56;100.00;100894.19;2097325;28;20122;-72
2022/11/18 06:38:37;;;;;;;9.82;2.85;;;;;;;21.63;100.00;100892.22;2096009;28;20052;-73